sensor_id;sensor_type;location;lat;lon;timestamp;pressure;altitude;pressure_sealevel;temperature;humidity
66762;BME280;53672;48.176;16.338;2023-04-12T00:01:23;98877.63;;;5.14;89.26
66762;BME280;53672;48.176;16.338;2023-04-12T00:06:24;98877.78;;;5.07;90.29
66762;BME280;53672;48.176;16.338;2023-04-12T00:11:24;98875.38;;;5.05;90.33
66762;BME280;53672;48.176;16.338;2023-04-12T00:16:26;98856.69;;;5.05;90.29
66762;BME280;53672;48.176;16.338;2023-04-12T00:21:27;98859.25;;;4.95;91.63
66762;BME280;53672;48.176;16.338;2023-04-12T00:26:27;98855.56;;;5.01;91.39
66762;BME280;53672;48.176;16.338;2023-04-12T00:31:29;98844.84;;;4.96;90.49
66762;BME280;53672;48.176;16.338;2023-04-12T00:36:29;98831.44;;;4.91;91.72
66762;BME280;53672;48.176;16.338;2023-04-12T00:41:30;98830.50;;;4.81;92.41
66762;BME280;53672;48.176;16.338;2023-04-12T00:46:32;98820.53;;;4.71;93.10
66762;BME280;53672;48.176;16.338;2023-04-12T00:51:33;98828.16;;;4.84;92.62
66762;BME280;53672;48.176;16.338;2023-04-12T00:56:33;98821.47;;;4.82;93.12
66762;BME280;53672;48.176;16.338;2023-04-12T01:01:35;98825.91;;;4.76;93.43
66762;BME280;53672;48.176;16.338;2023-04-12T01:06:50;98817.50;;;4.63;93.76
66762;BME280;53672;48.176;16.338;2023-04-12T01:12:03;98814.06;;;4.45;94.45
66762;BME280;53672;48.176;16.338;2023-04-12T01:17:10;98796.59;;;4.33;96.37
66762;BME280;53672;48.176;16.338;2023-04-12T01:22:22;98790.91;;;4.24;96.66
66762;BME280;53672;48.176;16.338;2023-04-12T01:27:34;98800.97;;;4.22;97.14
66762;BME280;53672;48.176;16.338;2023-04-12T01:32:39;98799.22;;;4.11;97.86
66762;BME280;53672;48.176;16.338;2023-04-12T01:37:42;98802.03;;;3.99;98.92
66762;BME280;53672;48.176;16.338;2023-04-12T01:42:44;98795.06;;;3.98;99.59
66762;BME280;53672;48.176;16.338;2023-04-12T01:47:45;98793.06;;;3.89;100.00
66762;BME280;53672;48.176;16.338;2023-04-12T01:52:51;98789.06;;;3.86;100.00
66762;BME280;53672;48.176;16.338;2023-04-12T01:57:55;98796.47;;;3.84;100.00
66762;BME280;53672;48.176;16.338;2023-04-12T02:02:56;98788.25;;;3.86;100.00
66762;BME280;53672;48.176;16.338;2023-04-12T02:07:57;98797.03;;;3.86;100.00
66762;BME280;53672;48.176;16.338;2023-04-12T02:13:00;98781.69;;;3.77;100.00
66762;BME280;53672;48.176;16.338;2023-04-12T02:18:00;98783.63;;;3.81;100.00
66762;BME280;53672;48.176;16.338;2023-04-12T02:23:01;98780.91;;;3.76;100.00
66762;BME280;53672;48.176;16.338;2023-04-12T02:28:02;98785.16;;;3.77;100.00
66762;BME280;53672;48.176;16.338;2023-04-12T02:33:03;98781.00;;;3.65;100.00
66762;BME280;53672;48.176;16.338;2023-04-12T02:38:03;98767.34;;;3.61;100.00
66762;BME280;53672;48.176;16.338;2023-04-12T02:43:06;98768.34;;;3.55;100.00
66762;BME280;53672;48.176;16.338;2023-04-12T02:48:06;98777.88;;;3.34;100.00
66762;BME280;53672;48.176;16.338;2023-04-12T02:53:07;98766.63;;;3.16;100.00
66762;BME280;53672;48.176;16.338;2023-04-12T02:58:08;98772.94;;;3.10;100.00
66762;BME280;53672;48.176;16.338;2023-04-12T03:03:09;98778.63;;;3.01;100.00
66762;BME280;53672;48.176;16.338;2023-04-12T03:08:09;98768.78;;;3.02;100.00
66762;BME280;53672;48.176;16.338;2023-04-12T03:13:12;98775.91;;;2.96;100.00
66762;BME280;53672;48.176;16.338;2023-04-12T03:18:13;98783.19;;;3.01;100.00
66762;BME280;53672;48.176;16.338;2023-04-12T03:23:13;98768.25;;;3.00;100.00
66762;BME280;53672;48.176;16.338;2023-04-12T03:28:15;98763.91;;;3.11;100.00
66762;BME280;53672;48.176;16.338;2023-04-12T03:33:16;98768.75;;;3.14;100.00
66762;BME280;53672;48.176;16.338;2023-04-12T03:38:16;98760.09;;;3.06;100.00
66762;BME280;53672;48.176;16.338;2023-04-12T03:43:18;98750.09;;;2.97;100.00
66762;BME280;53672;48.176;16.338;2023-04-12T03:48:18;98742.59;;;2.94;100.00
66762;BME280;53672;48.176;16.338;2023-04-12T03:53:19;98742.91;;;2.97;100.00
66762;BME280;53672;48.176;16.338;2023-04-12T03:58:21;98749.84;;;2.98;100.00
66762;BME280;53672;48.176;16.338;2023-04-12T04:03:21;98739.63;;;3.07;100.00
66762;BME280;53672;48.176;16.338;2023-04-12T04:08:22;98747.34;;;3.08;100.00
66762;BME280;53672;48.176;16.338;2023-04-12T04:13:24;98753.16;;;3.05;100.00
66762;BME280;53672;48.176;16.338;2023-04-12T04:18:24;98740.59;;;3.01;100.00
66762;BME280;53672;48.176;16.338;2023-04-12T04:23:25;98733.63;;;3.00;100.00
66762;BME280;53672;48.176;16.338;2023-04-12T04:28:27;98741.13;;;3.03;100.00
66762;BME280;53672;48.176;16.338;2023-04-12T04:33:27;98736.84;;;3.02;100.00
66762;BME280;53672;48.176;16.338;2023-04-12T04:38:28;98741.25;;;3.08;100.00
66762;BME280;53672;48.176;16.338;2023-04-12T04:43:30;98752.38;;;3.22;100.00
66762;BME280;53672;48.176;16.338;2023-04-12T04:48:30;98738.28;;;3.43;100.00
66762;BME280;53672;48.176;16.338;2023-04-12T04:53:31;98734.03;;;3.58;100.00
66762;BME280;53672;48.176;16.338;2023-04-12T04:58:32;98733.56;;;3.83;99.99
66762;BME280;53672;48.176;16.338;2023-04-12T05:03:33;98731.78;;;4.11;97.40
66762;BME280;53672;48.176;16.338;2023-04-12T05:08:33;98739.34;;;4.40;95.22
66762;BME280;53672;48.176;16.338;2023-04-12T05:13:35;98737.81;;;4.76;92.37
66762;BME280;53672;48.176;16.338;2023-04-12T05:18:36;98753.28;;;5.01;90.63
66762;BME280;53672;48.176;16.338;2023-04-12T05:23:41;98752.75;;;5.31;88.21
66762;BME280;53672;48.176;16.338;2023-04-12T05:28:43;98758.28;;;5.56;87.00
66762;BME280;53672;48.176;16.338;2023-04-12T05:33:43;98757.38;;;5.82;85.78
66762;BME280;53672;48.176;16.338;2023-04-12T05:38:44;98756.00;;;6.22;83.39
66762;BME280;53672;48.176;16.338;2023-04-12T05:43:45;98755.59;;;6.55;81.67
66762;BME280;53672;48.176;16.338;2023-04-12T05:48:46;98768.00;;;6.86;80.69
66762;BME280;53672;48.176;16.338;2023-04-12T05:53:46;98754.09;;;7.20;79.34
66762;BME280;53672;48.176;16.338;2023-04-12T05:58:48;98751.44;;;7.60;77.54
66762;BME280;53672;48.176;16.338;2023-04-12T06:03:49;98760.97;;;8.01;75.78
66762;BME280;53672;48.176;16.338;2023-04-12T06:08:49;98760.34;;;8.40;73.63
66762;BME280;53672;48.176;16.338;2023-04-12T06:13:51;98759.38;;;8.80;72.39
66762;BME280;53672;48.176;16.338;2023-04-12T06:18:52;98766.59;;;9.23;69.48
66762;BME280;53672;48.176;16.338;2023-04-12T06:23:52;98764.22;;;9.50;68.11
66762;BME280;53672;48.176;16.338;2023-04-12T06:28:54;98766.13;;;9.79;66.11
66762;BME280;53672;48.176;16.338;2023-04-12T06:33:55;98760.13;;;10.15;65.57
66762;BME280;53672;48.176;16.338;2023-04-12T06:38:55;98753.91;;;11.18;58.50
66762;BME280;53672;48.176;16.338;2023-04-12T06:43:57;98751.94;;;12.16;53.86
66762;BME280;53672;48.176;16.338;2023-04-12T06:48:57;98741.53;;;13.00;49.96
66762;BME280;53672;48.176;16.338;2023-04-12T06:53:58;98743.94;;;13.59;47.85
66762;BME280;53672;48.176;16.338;2023-04-12T06:59:00;98735.63;;;14.26;46.01
66762;BME280;53672;48.176;16.338;2023-04-12T07:04:00;98737.84;;;14.55;44.28
66762;BME280;53672;48.176;16.338;2023-04-12T07:09:01;98729.84;;;14.50;43.94
66762;BME280;53672;48.176;16.338;2023-04-12T07:14:03;98722.44;;;13.94;44.54
66762;BME280;53672;48.176;16.338;2023-04-12T07:19:03;98708.63;;;13.20;44.32
66762;BME280;53672;48.176;16.338;2023-04-12T07:24:04;98700.53;;;12.21;45.13
66762;BME280;53672;48.176;16.338;2023-04-12T07:29:06;98701.00;;;12.37;46.77
66762;BME280;53672;48.176;16.338;2023-04-12T07:34:07;98691.19;;;12.41;50.01
66762;BME280;53672;48.176;16.338;2023-04-12T07:39:07;98677.69;;;12.77;47.82
66762;BME280;53672;48.176;16.338;2023-04-12T07:44:09;98670.56;;;13.16;46.59
66762;BME280;53672;48.176;16.338;2023-04-12T07:49:10;98669.50;;;13.57;43.31
66762;BME280;53672;48.176;16.338;2023-04-12T07:54:10;98659.66;;;13.61;41.13
66762;BME280;53672;48.176;16.338;2023-04-12T07:59:12;98662.97;;;14.37;41.55
66762;BME280;53672;48.176;16.338;2023-04-12T08:04:12;98666.25;;;14.16;42.44
66762;BME280;53672;48.176;16.338;2023-04-12T08:09:13;98656.34;;;14.03;42.79
66762;BME280;53672;48.176;16.338;2023-04-12T08:14:15;98647.91;;;14.22;42.84
66762;BME280;53672;48.176;16.338;2023-04-12T08:19:17;98641.00;;;14.81;43.40
66762;BME280;53672;48.176;16.338;2023-04-12T08:24:17;98644.59;;;15.92;40.17
66762;BME280;53672;48.176;16.338;2023-04-12T08:29:19;98645.06;;;16.94;36.46
66762;BME280;53672;48.176;16.338;2023-04-12T08:34:20;98635.00;;;19.12;31.82
66762;BME280;53672;48.176;16.338;2023-04-12T08:39:20;98630.34;;;17.97;32.26
66762;BME280;53672;48.176;16.338;2023-04-12T08:44:32;98618.63;;;20.03;31.58
66762;BME280;53672;48.176;16.338;2023-04-12T08:49:33;98612.25;;;22.13;27.64
66762;BME280;53672;48.176;16.338;2023-04-12T08:54:34;98605.59;;;21.04;28.71
66762;BME280;53672;48.176;16.338;2023-04-12T08:59:38;98600.88;;;23.34;24.99
66762;BME280;53672;48.176;16.338;2023-04-12T09:04:50;98594.66;;;25.15;21.94
66762;BME280;53672;48.176;16.338;2023-04-12T09:09:51;98590.31;;;23.77;24.89
66762;BME280;53672;48.176;16.338;2023-04-12T09:15:06;98570.41;;;20.30;26.16
66762;BME280;53672;48.176;16.338;2023-04-12T09:20:22;98556.75;;;19.36;31.18
66762;BME280;53672;48.176;16.338;2023-04-12T09:25:36;98549.88;;;21.39;26.74
66762;BME280;53672;48.176;16.338;2023-04-12T09:30:41;98531.03;;;20.18;29.52
66762;BME280;53672;48.176;16.338;2023-04-12T09:35:41;98532.66;;;20.39;27.11
66762;BME280;53672;48.176;16.338;2023-04-12T09:40:42;98518.63;;;17.40;32.19
66762;BME280;53672;48.176;16.338;2023-04-12T09:45:44;98516.03;;;17.19;31.53
66762;BME280;53672;48.176;16.338;2023-04-12T09:50:44;98503.56;;;16.73;31.40
66762;BME280;53672;48.176;16.338;2023-04-12T09:55:45;98509.06;;;16.64;31.29
66762;BME280;53672;48.176;16.338;2023-04-12T10:00:49;98491.53;;;18.32;28.24
66762;BME280;53672;48.176;16.338;2023-04-12T10:05:49;98493.69;;;17.62;29.43
66762;BME280;53672;48.176;16.338;2023-04-12T10:10:53;98480.22;;;15.01;33.65
66762;BME280;53672;48.176;16.338;2023-04-12T10:15:55;98467.13;;;15.70;33.35
66762;BME280;53672;48.176;16.338;2023-04-12T10:20:57;98458.97;;;15.91;33.29
66762;BME280;53672;48.176;16.338;2023-04-12T10:25:59;98455.72;;;16.51;31.45
66762;BME280;53672;48.176;16.338;2023-04-12T10:31:30;98448.94;;;17.02;30.34
66762;BME280;53672;48.176;16.338;2023-04-12T10:36:50;98444.03;;;16.18;31.25
66762;BME280;53672;48.176;16.338;2023-04-12T10:42:16;98431.53;;;16.38;31.69
66762;BME280;53672;48.176;16.338;2023-04-12T10:53:20;98419.00;;;15.42;31.91
66762;BME280;53672;48.176;16.338;2023-04-12T10:58:56;98415.56;;;17.66;30.55
66762;BME280;53672;48.176;16.338;2023-04-12T11:04:21;98407.84;;;19.61;27.73
66762;BME280;53672;48.176;16.338;2023-04-12T11:09:24;98394.41;;;19.05;27.19
66762;BME280;53672;48.176;16.338;2023-04-12T11:14:27;98393.81;;;20.81;25.44
66762;BME280;53672;48.176;16.338;2023-04-12T11:19:28;98385.97;;;22.48;23.31
66762;BME280;53672;48.176;16.338;2023-04-12T11:24:31;98383.56;;;21.23;24.69
66762;BME280;53672;48.176;16.338;2023-04-12T11:29:32;98375.91;;;23.06;21.68
66762;BME280;53672;48.176;16.338;2023-04-12T11:34:32;98366.84;;;20.83;24.91
66762;BME280;53672;48.176;16.338;2023-04-12T11:39:35;98358.38;;;19.15;24.75
66762;BME280;53672;48.176;16.338;2023-04-12T11:44:39;98350.91;;;21.97;22.81
66762;BME280;53672;48.176;16.338;2023-04-12T11:49:43;98346.25;;;22.01;23.22
66762;BME280;53672;48.176;16.338;2023-04-12T11:54:46;98335.16;;;20.37;24.97
66762;BME280;53672;48.176;16.338;2023-04-12T11:59:48;98340.63;;;26.76;18.29
66762;BME280;53672;48.176;16.338;2023-04-12T12:04:48;98326.69;;;19.65;24.70
66762;BME280;53672;48.176;16.338;2023-04-12T12:09:50;98328.25;;;20.92;23.75
66762;BME280;53672;48.176;16.338;2023-04-12T12:14:51;98315.84;;;18.36;28.80
66762;BME280;53672;48.176;16.338;2023-04-12T12:19:55;98300.44;;;17.57;28.14
66762;BME280;53672;48.176;16.338;2023-04-12T12:24:58;98293.25;;;19.17;26.80
66762;BME280;53672;48.176;16.338;2023-04-12T12:30:00;98284.66;;;19.54;26.00
66762;BME280;53672;48.176;16.338;2023-04-12T12:35:01;98280.44;;;19.21;26.65
66762;BME280;53672;48.176;16.338;2023-04-12T12:40:08;98267.06;;;18.19;27.99
66762;BME280;53672;48.176;16.338;2023-04-12T12:45:09;98261.75;;;17.79;28.48
66762;BME280;53672;48.176;16.338;2023-04-12T12:50:10;98257.97;;;17.16;29.43
66762;BME280;53672;48.176;16.338;2023-04-12T12:55:12;98246.03;;;17.60;28.78
66762;BME280;53672;48.176;16.338;2023-04-12T13:00:13;98240.91;;;16.91;29.78
66762;BME280;53672;48.176;16.338;2023-04-12T13:05:14;98230.91;;;17.07;29.40
66762;BME280;53672;48.176;16.338;2023-04-12T13:10:16;98233.31;;;16.48;30.22
66762;BME280;53672;48.176;16.338;2023-04-12T13:15:17;98219.69;;;16.00;31.48
66762;BME280;53672;48.176;16.338;2023-04-12T13:20:17;98201.22;;;15.81;31.67
66762;BME280;53672;48.176;16.338;2023-04-12T13:25:20;98202.50;;;16.20;31.00
66762;BME280;53672;48.176;16.338;2023-04-12T13:30:20;98199.84;;;15.09;32.81
66762;BME280;53672;48.176;16.338;2023-04-12T13:35:21;98191.69;;;14.89;33.51
66762;BME280;53672;48.176;16.338;2023-04-12T13:40:23;98191.94;;;15.16;33.18
66762;BME280;53672;48.176;16.338;2023-04-12T13:45:23;98169.50;;;14.87;33.92
66762;BME280;53672;48.176;16.338;2023-04-12T13:50:24;98167.16;;;14.85;33.53
66762;BME280;53672;48.176;16.338;2023-04-12T13:55:26;98163.25;;;14.74;34.72
66762;BME280;53672;48.176;16.338;2023-04-12T14:00:26;98167.84;;;14.53;34.64
66762;BME280;53672;48.176;16.338;2023-04-12T14:05:26;98162.56;;;14.56;34.78
66762;BME280;53672;48.176;16.338;2023-04-12T14:10:28;98148.13;;;13.85;35.93
66762;BME280;53672;48.176;16.338;2023-04-12T14:15:29;98143.28;;;13.61;36.52
66762;BME280;53672;48.176;16.338;2023-04-12T14:20:29;98142.88;;;13.80;37.12
66762;BME280;53672;48.176;16.338;2023-04-12T14:25:31;98141.09;;;13.93;37.16
66762;BME280;53672;48.176;16.338;2023-04-12T14:30:32;98128.19;;;14.19;36.68
66762;BME280;53672;48.176;16.338;2023-04-12T14:35:32;98114.66;;;13.90;37.66
66762;BME280;53672;48.176;16.338;2023-04-12T14:40:34;98112.47;;;13.83;39.14
66762;BME280;53672;48.176;16.338;2023-04-12T14:45:35;98102.84;;;14.15;39.84
66762;BME280;53672;48.176;16.338;2023-04-12T14:50:36;98097.03;;;14.34;39.73
66762;BME280;53672;48.176;16.338;2023-04-12T14:55:38;98097.72;;;14.22;39.93
66762;BME280;53672;48.176;16.338;2023-04-12T15:00:38;98102.91;;;13.77;40.04
66762;BME280;53672;48.176;16.338;2023-04-12T15:05:39;98087.44;;;13.78;39.66
66762;BME280;53672;48.176;16.338;2023-04-12T15:10:41;98067.31;;;13.87;39.87
66762;BME280;53672;48.176;16.338;2023-04-12T15:15:41;98070.41;;;14.06;39.52
66762;BME280;53672;48.176;16.338;2023-04-12T15:20:42;98058.56;;;14.11;37.86
66762;BME280;53672;48.176;16.338;2023-04-12T15:25:44;98066.81;;;14.14;37.64
66762;BME280;53672;48.176;16.338;2023-04-12T15:30:44;98065.88;;;13.90;38.07
66762;BME280;53672;48.176;16.338;2023-04-12T15:35:45;98066.09;;;14.35;37.41
66762;BME280;53672;48.176;16.338;2023-04-12T15:40:52;98059.34;;;14.61;37.21
66762;BME280;53672;48.176;16.338;2023-04-12T15:45:53;98057.56;;;13.65;39.16
66762;BME280;53672;48.176;16.338;2023-04-12T15:50:54;98061.78;;;14.04;39.21
66762;BME280;53672;48.176;16.338;2023-04-12T15:55:56;98053.84;;;13.79;39.95
66762;BME280;53672;48.176;16.338;2023-04-12T16:00:58;98047.97;;;13.97;40.37
66762;BME280;53672;48.176;16.338;2023-04-12T16:05:59;98054.81;;;13.45;41.49
66762;BME280;53672;48.176;16.338;2023-04-12T16:11:01;98047.78;;;13.44;41.86
66762;BME280;53672;48.176;16.338;2023-04-12T16:16:01;98049.41;;;13.45;42.51
66762;BME280;53672;48.176;16.338;2023-04-12T16:21:02;98045.38;;;13.51;42.86
66762;BME280;53672;48.176;16.338;2023-04-12T16:26:04;98043.50;;;13.43;43.33
66762;BME280;53672;48.176;16.338;2023-04-12T16:31:05;98026.41;;;13.59;43.25
66762;BME280;53672;48.176;16.338;2023-04-12T16:36:06;98016.03;;;13.61;43.70
66762;BME280;53672;48.176;16.338;2023-04-12T16:41:08;98011.19;;;13.67;43.50
66762;BME280;53672;48.176;16.338;2023-04-12T16:46:09;97995.41;;;13.48;44.12
66762;BME280;53672;48.176;16.338;2023-04-12T16:51:10;98001.50;;;13.37;44.58
66762;BME280;53672;48.176;16.338;2023-04-12T16:56:12;98015.69;;;13.34;44.84
66762;BME280;53672;48.176;16.338;2023-04-12T17:01:12;98008.16;;;13.39;44.99
66762;BME280;53672;48.176;16.338;2023-04-12T17:06:14;97996.44;;;13.35;45.33
66762;BME280;53672;48.176;16.338;2023-04-12T17:11:16;98005.31;;;13.36;45.07
66762;BME280;53672;48.176;16.338;2023-04-12T17:16:17;98002.97;;;13.26;45.32
66762;BME280;53672;48.176;16.338;2023-04-12T17:21:18;98008.88;;;13.28;45.41
66762;BME280;53672;48.176;16.338;2023-04-12T17:26:20;98019.88;;;13.23;45.87
66762;BME280;53672;48.176;16.338;2023-04-12T17:31:21;98016.09;;;13.15;46.01
66762;BME280;53672;48.176;16.338;2023-04-12T17:36:22;98019.09;;;13.05;46.13
66762;BME280;53672;48.176;16.338;2023-04-12T17:41:24;98007.81;;;13.03;46.23
66762;BME280;53672;48.176;16.338;2023-04-12T17:46:26;98001.81;;;12.97;46.83
66762;BME280;53672;48.176;16.338;2023-04-12T17:51:27;98012.13;;;12.95;47.09
66762;BME280;53672;48.176;16.338;2023-04-12T17:56:29;98008.97;;;12.85;47.58
66762;BME280;53672;48.176;16.338;2023-04-12T18:01:30;98001.22;;;12.75;47.61
66762;BME280;53672;48.176;16.338;2023-04-12T18:06:31;97986.88;;;12.74;47.82
66762;BME280;53672;48.176;16.338;2023-04-12T18:11:33;97961.81;;;12.65;48.18
66762;BME280;53672;48.176;16.338;2023-04-12T18:16:34;97970.09;;;12.60;48.77
66762;BME280;53672;48.176;16.338;2023-04-12T18:21:35;97971.50;;;12.57;48.71
66762;BME280;53672;48.176;16.338;2023-04-12T18:26:38;97978.53;;;12.50;49.47
66762;BME280;53672;48.176;16.338;2023-04-12T18:31:39;97990.28;;;12.37;49.90
66762;BME280;53672;48.176;16.338;2023-04-12T18:36:39;97989.81;;;12.26;50.67
66762;BME280;53672;48.176;16.338;2023-04-12T18:41:41;97994.47;;;12.26;50.53
66762;BME280;53672;48.176;16.338;2023-04-12T18:46:42;97983.66;;;12.17;51.13
66762;BME280;53672;48.176;16.338;2023-04-12T18:51:43;97982.84;;;12.16;51.33
66762;BME280;53672;48.176;16.338;2023-04-12T18:56:46;97984.94;;;12.11;51.67
66762;BME280;53672;48.176;16.338;2023-04-12T19:01:47;97967.91;;;12.10;52.07
66762;BME280;53672;48.176;16.338;2023-04-12T19:06:49;97972.69;;;12.13;52.30
66762;BME280;53672;48.176;16.338;2023-04-12T19:11:52;97962.06;;;12.08;52.75
66762;BME280;53672;48.176;16.338;2023-04-12T19:16:52;97968.88;;;11.97;53.59
66762;BME280;53672;48.176;16.338;2023-04-12T19:21:52;97986.81;;;11.93;54.03
66762;BME280;53672;48.176;16.338;2023-04-12T19:26:54;97990.94;;;11.82;54.63
66762;BME280;53672;48.176;16.338;2023-04-12T19:31:56;97986.34;;;11.74;54.92
66762;BME280;53672;48.176;16.338;2023-04-12T19:36:57;97981.25;;;11.73;55.39
66762;BME280;53672;48.176;16.338;2023-04-12T19:42:00;97976.63;;;11.73;55.44
66762;BME280;53672;48.176;16.338;2023-04-12T19:47:00;97979.78;;;11.66;55.92
66762;BME280;53672;48.176;16.338;2023-04-12T19:52:01;97960.09;;;11.57;56.78
66762;BME280;53672;48.176;16.338;2023-04-12T19:57:04;97960.38;;;11.56;56.50
66762;BME280;53672;48.176;16.338;2023-04-12T20:02:05;97956.41;;;11.45;57.98
66762;BME280;53672;48.176;16.338;2023-04-12T20:07:06;97955.75;;;11.39;57.86
66762;BME280;53672;48.176;16.338;2023-04-12T20:12:08;97952.91;;;11.36;58.17
66762;BME280;53672;48.176;16.338;2023-04-12T20:17:08;97962.72;;;11.23;58.77
66762;BME280;53672;48.176;16.338;2023-04-12T20:22:10;97961.88;;;11.14;59.39
66762;BME280;53672;48.176;16.338;2023-04-12T20:27:12;97955.66;;;11.13;60.00
66762;BME280;53672;48.176;16.338;2023-04-12T20:32:12;97952.97;;;11.13;60.10
66762;BME280;53672;48.176;16.338;2023-04-12T20:37:14;97938.22;;;11.02;60.56
66762;BME280;53672;48.176;16.338;2023-04-12T20:42:16;97928.19;;;11.03;61.05
66762;BME280;53672;48.176;16.338;2023-04-12T20:47:17;97936.44;;;11.06;61.29
66762;BME280;53672;48.176;16.338;2023-04-12T20:52:18;97924.72;;;11.02;61.12
66762;BME280;53672;48.176;16.338;2023-04-12T20:57:20;97919.91;;;10.91;61.26
66762;BME280;53672;48.176;16.338;2023-04-12T21:02:20;97928.47;;;10.84;62.21
66762;BME280;53672;48.176;16.338;2023-04-12T21:07:21;97920.03;;;10.77;62.63
66762;BME280;53672;48.176;16.338;2023-04-12T21:12:23;97921.28;;;10.71;62.47
66762;BME280;53672;48.176;16.338;2023-04-12T21:17:23;97913.81;;;10.68;62.67
66762;BME280;53672;48.176;16.338;2023-04-12T21:22:24;97906.66;;;10.63;62.76
66762;BME280;53672;48.176;16.338;2023-04-12T21:27:25;97889.84;;;10.58;62.46
66762;BME280;53672;48.176;16.338;2023-04-12T21:32:26;97892.66;;;10.53;62.64
66762;BME280;53672;48.176;16.338;2023-04-12T21:37:26;97899.28;;;10.47;62.51
66762;BME280;53672;48.176;16.338;2023-04-12T21:42:28;97899.13;;;10.43;62.64
66762;BME280;53672;48.176;16.338;2023-04-12T21:47:29;97889.25;;;10.39;62.91
66762;BME280;53672;48.176;16.338;2023-04-12T21:52:30;97888.41;;;10.30;63.51
66762;BME280;53672;48.176;16.338;2023-04-12T21:57:33;97885.38;;;10.23;63.76
66762;BME280;53672;48.176;16.338;2023-04-12T22:02:33;97890.41;;;10.15;64.23
66762;BME280;53672;48.176;16.338;2023-04-12T22:07:34;97892.59;;;10.13;64.50
66762;BME280;53672;48.176;16.338;2023-04-12T22:12:36;97887.31;;;10.08;64.86
66762;BME280;53672;48.176;16.338;2023-04-12T22:17:36;97882.53;;;10.05;64.96
66762;BME280;53672;48.176;16.338;2023-04-12T22:22:37;97888.53;;;10.02;65.22
66762;BME280;53672;48.176;16.338;2023-04-12T22:27:39;97889.16;;;9.99;65.63
66762;BME280;53672;48.176;16.338;2023-04-12T22:32:39;97876.00;;;9.98;65.71
66762;BME280;53672;48.176;16.338;2023-04-12T22:37:40;97876.78;;;9.98;65.79
66762;BME280;53672;48.176;16.338;2023-04-12T22:42:42;97874.59;;;10.00;65.51
66762;BME280;53672;48.176;16.338;2023-04-12T22:47:43;97889.47;;;9.98;65.59
66762;BME280;53672;48.176;16.338;2023-04-12T22:52:43;97896.44;;;9.99;64.73
66762;BME280;53672;48.176;16.338;2023-04-12T22:57:45;97881.56;;;10.01;64.79
66762;BME280;53672;48.176;16.338;2023-04-12T23:02:45;97881.88;;;10.00;64.88
66762;BME280;53672;48.176;16.338;2023-04-12T23:07:46;97875.69;;;9.99;64.96
66762;BME280;53672;48.176;16.338;2023-04-12T23:12:48;97875.19;;;9.97;65.60
66762;BME280;53672;48.176;16.338;2023-04-12T23:17:48;97876.63;;;9.95;65.55
66762;BME280;53672;48.176;16.338;2023-04-12T23:22:49;97861.38;;;9.90;65.91
66762;BME280;53672;48.176;16.338;2023-04-12T23:27:50;97860.44;;;9.86;66.23
66762;BME280;53672;48.176;16.338;2023-04-12T23:32:51;97849.16;;;9.84;66.76
66762;BME280;53672;48.176;16.338;2023-04-12T23:37:51;97857.38;;;9.79;67.06
66762;BME280;53672;48.176;16.338;2023-04-12T23:42:53;97846.41;;;9.76;67.18
66762;BME280;53672;48.176;16.338;2023-04-12T23:47:54;97856.38;;;9.75;67.09
66762;BME280;53672;48.176;16.338;2023-04-12T23:52:54;97853.50;;;9.72;67.54
66762;BME280;53672;48.176;16.338;2023-04-12T23:57:56;97845.25;;;9.68;67.73
